Time;durP1;ratioP1;P1;durP2;ratioP2;P2;SDS_P1;SDS_P2;PMS_P1;PMS_P2;Temp;Humidity;BMP_temperature;BMP_pressure;BME280_temperature;BME280_humidity;BME280_pressure;Samples;Min_cycle;Max_cycle;Signal;HPM_P1;HPM_P2
2021/11/19 00:01:02;;;;;;;17.45;10.35;;;;;;;6.28;74.86;101350.78;1080942;54;20104;-77
2021/11/19 00:02:07;;;;;;;15.40;10.15;;;;;;;6.26;75.27;101364.13;1080566;54;20966;-77
2021/11/19 00:03:09;;;;;;;14.48;9.73;;;;;;;6.25;75.19;101349.13;1080975;54;20518;-77
2021/11/19 00:04:14;;;;;;;14.40;10.25;;;;;;;6.20;75.44;101362.66;1081099;54;20154;-77
2021/11/19 00:05:17;;;;;;;14.85;10.25;;;;;;;6.11;75.64;101357.00;1080996;54;20932;-77
2021/11/19 00:06:21;;;;;;;16.88;10.75;;;;;;;6.06;75.67;101354.59;1080970;54;20031;-76
2021/11/19 00:07:22;;;;;;;15.90;11.05;;;;;;;6.05;75.77;101359.03;1080764;54;20038;-76
2021/11/19 00:08:28;;;;;;;14.85;9.85;;;;;;;6.08;75.73;101355.38;1081174;54;20915;-77
2021/11/19 00:09:30;;;;;;;16.75;11.35;;;;;;;6.11;75.80;101351.69;1080946;54;20042;-76
2021/11/19 00:10:34;;;;;;;17.50;11.23;;;;;;;6.13;75.55;101349.81;1081915;54;20035;-77
2021/11/19 00:11:38;;;;;;;14.48;10.05;;;;;;;6.11;75.66;101363.16;1082436;54;20039;-76
2021/11/19 00:12:43;;;;;;;16.40;10.30;;;;;;;6.11;75.66;101354.34;1082198;54;20042;-75
2021/11/19 00:13:45;;;;;;;14.35;10.07;;;;;;;6.13;75.42;101360.44;1082786;39;20493;-75
2021/11/19 00:14:49;;;;;;;15.52;9.75;;;;;;;6.14;75.78;101356.84;1082238;54;20034;-76
2021/11/19 00:15:55;;;;;;;14.55;10.10;;;;;;;6.11;75.76;101359.66;1083399;39;20453;-75
2021/11/19 00:17:05;;;;;;;18.80;11.05;;;;;;;6.17;75.59;101362.84;1083971;31;20560;-75
2021/11/19 00:18:06;;;;;;;19.48;11.93;;;;;;;6.00;75.89;101354.94;1082094;54;20043;-75
2021/11/19 00:19:12;;;;;;;17.08;11.35;;;;;;;6.07;75.82;101354.50;1082077;54;20089;-75
2021/11/19 00:20:17;;;;;;;16.75;11.23;;;;;;;6.06;75.65;101352.78;1083065;39;20375;-74
2021/11/19 00:21:24;;;;;;;14.95;10.68;;;;;;;6.06;75.82;101346.63;1084259;54;20030;-75
2021/11/19 00:22:26;;;;;;;16.42;11.15;;;;;;;6.00;75.93;101353.13;1083858;54;20042;-76
2021/11/19 00:23:30;;;;;;;16.83;11.35;;;;;;;6.01;76.06;101346.00;1081580;54;20039;-77
2021/11/19 00:24:36;;;;;;;15.45;10.50;;;;;;;5.97;75.94;101347.94;1080948;54;20553;-76
2021/11/19 00:25:37;;;;;;;17.55;10.95;;;;;;;6.00;75.85;101352.28;1082747;54;20042;-75
2021/11/19 00:26:43;;;;;;;16.20;11.00;;;;;;;6.05;75.67;101351.06;1082078;54;20077;-76
2021/11/19 00:27:44;;;;;;;17.10;11.48;;;;;;;6.01;76.13;101351.31;1082449;54;20873;-76
2021/11/19 00:28:50;;;;;;;17.65;10.15;;;;;;;6.02;75.92;101353.03;1081229;54;20046;-76
2021/11/19 00:29:54;;;;;;;17.13;10.27;;;;;;;6.11;75.53;101347.22;1081195;54;20045;-76
2021/11/19 00:30:59;;;;;;;17.73;10.55;;;;;;;6.06;75.71;101349.28;1082226;39;20547;-75
2021/11/19 00:32:03;;;;;;;17.02;11.13;;;;;;;5.98;75.96;101352.31;1082637;54;20097;-76
2021/11/19 00:33:07;;;;;;;18.70;10.93;;;;;;;5.91;76.31;101354.44;1082558;54;20652;-75
2021/11/19 00:34:12;;;;;;;19.30;11.38;;;;;;;5.95;76.23;101347.19;1082377;54;20034;-76
2021/11/19 00:35:15;;;;;;;17.33;11.20;;;;;;;5.90;76.54;101352.72;1082273;54;20038;-76
2021/11/19 00:36:21;;;;;;;15.73;10.95;;;;;;;5.87;76.40;101355.56;1081976;54;20904;-76
2021/11/19 00:37:26;;;;;;;16.75;11.20;;;;;;;5.89;76.45;101355.47;1081316;54;20042;-76
2021/11/19 00:38:28;;;;;;;17.30;10.65;;;;;;;5.89;76.32;101366.09;1081138;54;20146;-76
2021/11/19 00:39:33;;;;;;;17.73;11.05;;;;;;;5.92;76.36;101363.28;1080946;54;20045;-76
2021/11/19 00:40:37;;;;;;;14.00;9.23;;;;;;;5.92;76.35;101357.97;1081037;54;20138;-76
2021/11/19 00:41:44;;;;;;;14.93;10.32;;;;;;;5.94;76.28;101364.91;1081306;54;20043;-76
2021/11/19 00:42:46;;;;;;;13.77;9.13;;;;;;;6.02;75.93;101369.84;1081912;31;20516;-76
2021/11/19 00:43:50;;;;;;;15.77;10.85;;;;;;;5.94;76.05;101362.25;1080830;54;20039;-76
2021/11/19 00:44:54;;;;;;;16.70;10.70;;;;;;;5.97;75.75;101368.34;1080922;54;20596;-76
2021/11/19 00:45:59;;;;;;;15.48;10.00;;;;;;;5.92;76.24;101372.09;1081083;54;20038;-76
2021/11/19 00:47:03;;;;;;;15.18;10.48;;;;;;;5.96;75.97;101372.78;1081021;54;20042;-76
2021/11/19 00:48:07;;;;;;;16.27;9.43;;;;;;;6.02;75.68;101377.81;1080893;54;20061;-76
2021/11/19 00:49:15;;;;;;;14.13;9.25;;;;;;;5.96;75.86;101369.28;1080511;54;20042;-77
2021/11/19 00:50:17;;;;;;;15.82;10.25;;;;;;;5.99;75.94;101372.66;1081018;39;20438;-76
2021/11/19 00:51:24;;;;;;;14.18;10.05;;;;;;;5.94;75.84;101372.88;1081296;39;20525;-76
2021/11/19 00:52:26;;;;;;;14.27;9.55;;;;;;;6.06;75.65;101371.38;1080933;54;20038;-77
2021/11/19 00:53:31;;;;;;;14.95;8.82;;;;;;;6.02;75.62;101369.84;1080827;54;20038;-76
2021/11/19 00:54:32;;;;;;;16.45;9.63;;;;;;;5.93;75.88;101371.16;1080723;54;20565;-77
2021/11/19 00:55:37;;;;;;;14.30;9.35;;;;;;;5.98;75.69;101362.09;1080939;54;20059;-77
2021/11/19 00:56:44;;;;;;;17.27;9.07;;;;;;;6.02;75.82;101367.19;1081910;54;20038;-77
2021/11/19 00:57:46;;;;;;;17.15;10.63;;;;;;;5.92;75.75;101365.94;1082300;54;20081;-77
2021/11/19 00:58:52;;;;;;;13.82;10.45;;;;;;;5.91;76.11;101364.22;1081190;54;20034;-76
2021/11/19 00:59:53;;;;;;;16.08;9.95;;;;;;;5.86;76.15;101371.56;1081276;39;20230;-77
2021/11/19 01:01:03;;;;;;;14.85;9.50;;;;;;;5.86;76.08;101367.13;1081915;54;20042;-76
2021/11/19 01:02:08;;;;;;;17.17;9.45;;;;;;;5.97;75.80;101366.53;1082197;54;20099;-75
2021/11/19 01:03:13;;;;;;;16.40;9.55;;;;;;;5.86;76.02;101368.91;1081950;54;20035;-75
2021/11/19 01:04:16;;;;;;;13.75;9.52;;;;;;;5.89;75.75;101366.97;1083706;31;20652;-76
2021/11/19 01:05:20;;;;;;;14.73;9.52;;;;;;;5.78;76.11;101367.53;1082301;54;20063;-76
2021/11/19 01:06:22;;;;;;;13.75;9.57;;;;;;;5.83;76.09;101361.13;1082236;54;20034;-75
2021/11/19 01:07:27;;;;;;;13.35;8.45;;;;;;;5.94;75.93;101364.91;1082088;54;20521;-76
2021/11/19 01:08:28;;;;;;;13.63;9.55;;;;;;;5.98;75.71;101365.59;1082033;54;20080;-76
2021/11/19 01:09:37;;;;;;;16.67;9.68;;;;;;;5.88;75.86;101373.22;1081582;54;20084;-77
2021/11/19 01:10:41;;;;;;;15.40;9.77;;;;;;;5.90;75.64;101370.47;1082333;54;20050;-77
2021/11/19 01:11:45;;;;;;;12.43;8.77;;;;;;;5.93;75.97;101378.28;1082461;54;20035;-76
2021/11/19 01:12:50;;;;;;;13.27;9.57;;;;;;;5.96;75.77;101380.75;1082222;54;20597;-76
2021/11/19 01:13:55;;;;;;;14.85;8.88;;;;;;;5.91;75.61;101382.78;1081812;54;20054;-76
2021/11/19 01:15:02;;;;;;;14.45;9.35;;;;;;;6.00;75.53;101381.50;1081932;54;20035;-75
2021/11/19 01:16:18;;;;;;;14.80;9.40;;;;;;;5.96;75.19;101385.22;1081952;54;21046;-76
2021/11/19 01:17:26;;;;;;;13.05;9.20;;;;;;;5.98;75.47;101393.94;1082605;54;20034;-76
2021/11/19 01:18:32;;;;;;;12.65;8.43;;;;;;;5.99;75.41;101391.25;1082348;54;20061;-76
2021/11/19 01:19:41;;;;;;;16.52;9.05;;;;;;;6.02;75.44;101390.22;1082158;54;20067;-76
2021/11/19 01:20:45;;;;;;;12.02;8.40;;;;;;;5.94;75.21;101391.44;1082367;54;21008;-76
2021/11/19 01:22:02;;;;;;;14.07;10.00;;;;;;;5.90;75.47;101381.09;1082282;39;20282;-76
2021/11/19 01:23:10;;;;;;;15.48;8.82;;;;;;;5.88;75.73;101388.25;1082132;54;20042;-76
2021/11/19 01:24:14;;;;;;;14.07;8.70;;;;;;;5.94;75.56;101388.78;1081805;54;20130;-76
2021/11/19 01:25:20;;;;;;;14.57;9.60;;;;;;;5.91;75.67;101382.78;1082062;54;20097;-76
2021/11/19 01:26:27;;;;;;;14.63;9.60;;;;;;;5.92;75.37;101380.06;1082093;54;20133;-76
2021/11/19 01:27:28;;;;;;;14.50;9.82;;;;;;;5.91;75.71;101385.44;1081521;54;20583;-77
2021/11/19 01:28:33;;;;;;;14.40;10.15;;;;;;;5.93;75.70;101386.25;1081585;54;20049;-76
2021/11/19 01:29:36;;;;;;;17.35;10.63;;;;;;;5.92;75.87;101384.50;1081658;54;20046;-78
2021/11/19 01:30:44;;;;;;;16.63;10.00;;;;;;;5.85;75.71;101386.63;1082536;54;20045;-76
2021/11/19 01:31:53;;;;;;;12.90;9.00;;;;;;;5.88;75.66;101389.13;1082149;54;20069;-76
2021/11/19 01:32:57;;;;;;;13.30;9.43;;;;;;;5.90;75.83;101383.72;1082438;39;20880;-76
2021/11/19 01:34:00;;;;;;;14.32;9.50;;;;;;;5.87;75.61;101386.53;1081798;54;20050;-75
2021/11/19 01:35:04;;;;;;;16.80;9.32;;;;;;;5.94;75.38;101388.78;1081871;54;20042;-75
2021/11/19 01:36:05;;;;;;;13.07;8.65;;;;;;;6.02;75.26;101388.44;1081919;54;20038;-76
2021/11/19 01:37:12;;;;;;;12.60;8.88;;;;;;;6.11;74.92;101387.06;1081793;54;20042;-77
2021/11/19 01:38:14;;;;;;;11.45;8.02;;;;;;;6.05;75.25;101392.72;1082731;39;20517;-76
2021/11/19 01:39:22;;;;;;;11.60;8.25;;;;;;;6.14;75.21;101386.06;1082104;54;20050;-75
2021/11/19 01:40:28;;;;;;;13.25;7.78;;;;;;;6.27;74.40;101388.91;1082202;54;20154;-76
2021/11/19 01:41:36;;;;;;;12.13;7.68;;;;;;;6.36;74.47;101383.91;1082320;54;20553;-76
2021/11/19 01:42:55;;;;;;;12.30;7.97;;;;;;;6.38;74.08;101390.00;1082090;54;20038;-77
2021/11/19 01:43:57;;;;;;;12.60;8.50;;;;;;;6.31;74.38;101390.44;1082365;54;20038;-76
2021/11/19 01:45:07;;;;;;;16.85;8.68;;;;;;;6.31;74.46;101380.69;1082223;54;20041;-76
2021/11/19 01:46:13;;;;;;;14.15;9.55;;;;;;;6.33;74.29;101383.25;1082392;54;20142;-75
2021/11/19 01:47:20;;;;;;;13.73;8.40;;;;;;;6.35;74.51;101382.22;1082268;54;20039;-76
2021/11/19 01:48:39;;;;;;;14.25;9.48;;;;;;;6.24;74.51;101381.94;1082329;54;20042;-76
2021/11/19 01:49:43;;;;;;;13.30;9.52;;;;;;;6.20;74.85;101383.06;1082434;54;20173;-76
2021/11/19 01:50:50;;;;;;;15.77;9.73;;;;;;;6.15;75.10;101378.00;1082435;54;20686;-77
2021/11/19 01:51:57;;;;;;;14.85;9.45;;;;;;;6.19;74.87;101376.88;1082403;54;20042;-77
2021/11/19 01:53:06;;;;;;;13.68;9.55;;;;;;;6.13;75.31;101384.34;1082754;39;20776;-76
2021/11/19 01:54:14;;;;;;;16.48;9.13;;;;;;;6.12;75.17;101387.94;1082225;54;20035;-76
2021/11/19 01:55:19;;;;;;;17.58;9.38;;;;;;;6.18;75.31;101379.63;1081869;54;20050;-76
2021/11/19 01:56:29;;;;;;;14.68;9.60;;;;;;;6.20;75.25;101385.72;1082019;54;20034;-77
2021/11/19 01:57:34;;;;;;;15.02;8.48;;;;;;;6.23;75.12;101382.91;1082122;54;20050;-76
2021/11/19 01:58:42;;;;;;;12.00;8.75;;;;;;;6.20;75.37;101383.06;1082143;54;20042;-77
2021/11/19 01:59:51;;;;;;;14.45;8.95;;;;;;;6.23;74.94;101378.44;1082334;54;20054;-76
2021/11/19 02:00:59;;;;;;;12.25;8.75;;;;;;;6.24;75.25;101379.28;1082188;54;20046;-76
2021/11/19 02:02:04;;;;;;;14.88;9.55;;;;;;;6.15;75.31;101380.66;1082244;54;20042;-77
2021/11/19 02:03:14;;;;;;;16.52;9.77;;;;;;;6.12;75.80;101379.97;1082077;54;20045;-76
2021/11/19 02:04:19;;;;;;;14.47;8.63;;;;;;;6.28;75.07;101383.50;1082419;54;20050;-76
2021/11/19 02:05:26;;;;;;;13.10;8.50;;;;;;;6.34;74.82;101383.13;1082468;54;20279;-76
2021/11/19 02:06:36;;;;;;;12.68;8.45;;;;;;;6.21;75.18;101379.47;1082234;54;20050;-76
2021/11/19 02:07:44;;;;;;;9.95;6.47;;;;;;;6.23;75.14;101386.41;1082309;54;21621;-77
2021/11/19 02:08:49;;;;;;;12.63;8.32;;;;;;;6.27;75.27;101383.59;1082301;54;20056;-76
2021/11/19 02:09:58;;;;;;;16.73;9.05;;;;;;;6.24;75.14;101384.59;1082604;54;20106;-76
2021/11/19 02:11:14;;;;;;;15.02;9.27;;;;;;;6.21;75.62;101385.63;1082365;54;20041;-76
2021/11/19 02:12:25;;;;;;;13.05;8.90;;;;;;;6.33;75.38;101386.75;1081982;54;20125;-76
2021/11/19 02:13:33;;;;;;;12.35;8.57;;;;;;;6.20;75.64;101375.09;1082509;54;20035;-76
2021/11/19 02:14:51;;;;;;;13.65;8.75;;;;;;;6.18;75.57;101384.94;1082040;54;20038;-76
2021/11/19 02:15:59;;;;;;;16.15;9.60;;;;;;;6.14;75.97;101378.09;1082466;54;20034;-77
2021/11/19 02:17:01;;;;;;;16.50;9.05;;;;;;;6.11;76.36;101375.59;1082605;39;20430;-76
2021/11/19 02:18:10;;;;;;;12.50;8.75;;;;;;;6.20;75.97;101377.75;1081789;54;20533;-77
2021/11/19 02:19:19;;;;;;;12.27;8.63;;;;;;;6.36;75.29;101373.28;1081913;54;20046;-77
2021/11/19 02:20:27;;;;;;;13.48;9.38;;;;;;;6.24;75.69;101373.97;1082457;54;20035;-77
2021/11/19 02:21:32;;;;;;;13.15;9.65;;;;;;;6.24;76.06;101373.97;1083421;54;20035;-77
2021/11/19 02:22:40;;;;;;;14.60;9.65;;;;;;;6.32;76.05;101373.56;1083845;39;20449;-76
2021/11/19 02:23:44;;;;;;;13.90;8.48;;;;;;;6.44;75.30;101366.69;1082865;31;20488;-76
2021/11/19 02:24:53;;;;;;;14.15;9.80;;;;;;;6.44;75.41;101366.69;1082465;54;20149;-76
2021/11/19 02:25:58;;;;;;;14.95;9.63;;;;;;;6.37;75.62;101368.84;1082344;54;20047;-76
2021/11/19 02:27:10;;;;;;;13.27;9.45;;;;;;;6.49;75.63;101368.16;1082126;46;20042;-76
2021/11/19 02:28:15;;;;;;;14.50;9.45;;;;;;;6.55;75.18;101366.94;1082003;54;20038;-75
2021/11/19 02:29:20;;;;;;;14.18;8.90;;;;;;;6.51;75.49;101365.44;1082098;54;20168;-77
2021/11/19 02:30:25;;;;;;;16.45;11.45;;;;;;;6.37;75.79;101363.53;1083483;54;20042;-76
2021/11/19 02:31:33;;;;;;;14.68;10.15;;;;;;;6.31;76.11;101361.22;1085300;46;20034;-77
2021/11/19 02:32:38;;;;;;;18.20;10.73;;;;;;;6.23;76.48;101364.31;1085144;54;20049;-78
2021/11/19 02:33:45;;;;;;;16.77;11.00;;;;;;;6.27;76.39;101363.19;1084981;39;20402;-77
2021/11/19 02:34:50;;;;;;;17.52;11.07;;;;;;;6.27;76.33;101367.66;1084979;54;20065;-77
2021/11/19 02:35:58;;;;;;;18.00;10.05;;;;;;;6.32;76.37;101366.47;1084933;54;20062;-77
2021/11/19 02:37:01;;;;;;;18.20;10.57;;;;;;;6.38;76.40;101370.53;1083737;54;20090;-77
2021/11/19 02:38:10;;;;;;;14.90;10.38;;;;;;;6.30;76.33;101367.47;1082232;54;20584;-76
2021/11/19 02:39:18;;;;;;;15.40;10.00;;;;;;;6.32;76.38;101371.78;1082481;54;20072;-76
2021/11/19 02:40:24;;;;;;;17.85;10.65;;;;;;;6.37;76.02;101360.88;1082368;54;20205;-77
2021/11/19 02:41:31;;;;;;;16.55;10.10;;;;;;;6.34;75.91;101361.06;1084707;54;20050;-77
2021/11/19 02:42:38;;;;;;;14.07;9.75;;;;;;;6.37;75.91;101363.53;1085308;54;20046;-77
2021/11/19 02:43:45;;;;;;;15.32;9.63;;;;;;;6.46;76.02;101364.81;1086053;39;20351;-76
2021/11/19 02:44:48;;;;;;;16.85;10.50;;;;;;;6.38;76.27;101366.09;1085924;39;20535;-77
2021/11/19 02:45:54;;;;;;;18.20;9.77;;;;;;;6.33;76.08;101362.84;1085618;39;20081;-77
2021/11/19 02:46:58;;;;;;;16.13;10.30;;;;;;;6.38;75.94;101373.19;1085457;54;20034;-77
